Ferguson, North Carolina
Current Conditions -  °F | °C
As of 9:15 AM on Thursday 18 Dec 2014 (Local Time) from KTNB Reporting Station
Overcast Overcast  
Wind Chill: 25°   Ceiling: 7500
Heat Index: 32°   Visibility: 10mi
Dew Point: 18°   Wind: 9mph
Humidity: 55%   Direction: 300°WNW
Pressure: 30.12"   Gusts: NA
Location:  36.09°N, 81.37°W
Report Text: KTNB 181415Z AUTO 30008KT 10SM OVC075 00/M08 A3012 RMK AO2 T00021080
Loading
Personal Weather Stations






























Interactive Weather Map New forecast layout! Learn more

10-Day Weather Forecast

Advertisements
Track Severe Weather on mobile